sensor_id;sensor_type;location;lat;lon;timestamp;P1;durP1;ratioP1;P2;durP2;ratioP2
18732;SDS011;9495;51.210;2.934;2023-02-15T00:00:38;209.07;;;106.33;;
18732;SDS011;9495;51.210;2.934;2023-02-15T00:03:08;206.40;;;104.87;;
18732;SDS011;9495;51.210;2.934;2023-02-15T00:05:36;246.80;;;115.83;;
18732;SDS011;9495;51.210;2.934;2023-02-15T00:08:05;269.60;;;124.80;;
18732;SDS011;9495;51.210;2.934;2023-02-15T00:10:33;232.87;;;114.43;;
18732;SDS011;9495;51.210;2.934;2023-02-15T00:13:02;223.83;;;110.67;;
18732;SDS011;9495;51.210;2.934;2023-02-15T00:15:30;206.93;;;106.83;;
18732;SDS011;9495;51.210;2.934;2023-02-15T00:17:59;221.40;;;110.00;;
18732;SDS011;9495;51.210;2.934;2023-02-15T00:20:28;205.50;;;105.23;;
18732;SDS011;9495;51.210;2.934;2023-02-15T00:22:57;199.77;;;103.00;;
18732;SDS011;9495;51.210;2.934;2023-02-15T00:25:26;224.37;;;111.27;;
18732;SDS011;9495;51.210;2.934;2023-02-15T00:27:54;210.93;;;107.70;;
18732;SDS011;9495;51.210;2.934;2023-02-15T00:30:22;207.27;;;105.50;;
18732;SDS011;9495;51.210;2.934;2023-02-15T00:32:51;215.50;;;111.53;;
18732;SDS011;9495;51.210;2.934;2023-02-15T00:35:19;239.53;;;118.00;;
18732;SDS011;9495;51.210;2.934;2023-02-15T00:37:49;233.67;;;115.40;;
18732;SDS011;9495;51.210;2.934;2023-02-15T00:40:18;244.77;;;118.70;;
18732;SDS011;9495;51.210;2.934;2023-02-15T00:42:47;252.33;;;118.07;;
18732;SDS011;9495;51.210;2.934;2023-02-15T00:45:15;230.30;;;111.30;;
18732;SDS011;9495;51.210;2.934;2023-02-15T00:47:44;204.40;;;105.57;;
18732;SDS011;9495;51.210;2.934;2023-02-15T00:50:12;230.80;;;112.13;;
18732;SDS011;9495;51.210;2.934;2023-02-15T00:52:41;218.57;;;109.30;;
18732;SDS011;9495;51.210;2.934;2023-02-15T00:55:10;238.10;;;114.70;;
18732;SDS011;9495;51.210;2.934;2023-02-15T00:57:39;225.17;;;112.50;;
18732;SDS011;9495;51.210;2.934;2023-02-15T01:00:08;262.47;;;119.77;;
18732;SDS011;9495;51.210;2.934;2023-02-15T01:02:37;293.37;;;127.30;;
18732;SDS011;9495;51.210;2.934;2023-02-15T01:05:05;243.43;;;117.97;;
18732;SDS011;9495;51.210;2.934;2023-02-15T01:07:34;233.97;;;115.07;;
18732;SDS011;9495;51.210;2.934;2023-02-15T01:10:02;244.67;;;113.27;;
18732;SDS011;9495;51.210;2.934;2023-02-15T01:12:33;235.03;;;115.70;;
18732;SDS011;9495;51.210;2.934;2023-02-15T01:15:01;310.87;;;132.83;;
18732;SDS011;9495;51.210;2.934;2023-02-15T01:17:30;274.50;;;125.90;;
18732;SDS011;9495;51.210;2.934;2023-02-15T01:19:59;260.40;;;122.70;;
18732;SDS011;9495;51.210;2.934;2023-02-15T01:22:27;249.70;;;120.27;;
18732;SDS011;9495;51.210;2.934;2023-02-15T01:24:56;242.47;;;117.63;;
18732;SDS011;9495;51.210;2.934;2023-02-15T01:27:24;260.73;;;120.80;;
18732;SDS011;9495;51.210;2.934;2023-02-15T01:29:54;243.47;;;118.43;;
18732;SDS011;9495;51.210;2.934;2023-02-15T01:32:22;231.47;;;115.97;;
18732;SDS011;9495;51.210;2.934;2023-02-15T01:34:51;233.77;;;116.77;;
18732;SDS011;9495;51.210;2.934;2023-02-15T01:37:19;230.10;;;114.60;;
18732;SDS011;9495;51.210;2.934;2023-02-15T01:39:48;277.10;;;127.00;;
18732;SDS011;9495;51.210;2.934;2023-02-15T01:42:20;302.17;;;131.70;;
18732;SDS011;9495;51.210;2.934;2023-02-15T01:44:50;265.13;;;122.63;;
18732;SDS011;9495;51.210;2.934;2023-02-15T01:47:25;248.27;;;117.27;;
18732;SDS011;9495;51.210;2.934;2023-02-15T01:50:01;253.40;;;122.93;;
18732;SDS011;9495;51.210;2.934;2023-02-15T01:52:33;244.60;;;117.77;;
18732;SDS011;9495;51.210;2.934;2023-02-15T01:55:04;273.73;;;127.57;;
18732;SDS011;9495;51.210;2.934;2023-02-15T01:57:34;296.97;;;131.53;;
18732;SDS011;9495;51.210;2.934;2023-02-15T02:00:03;265.87;;;122.90;;
18732;SDS011;9495;51.210;2.934;2023-02-15T02:02:35;259.70;;;122.60;;
18732;SDS011;9495;51.210;2.934;2023-02-15T02:05:04;230.07;;;113.57;;
18732;SDS011;9495;51.210;2.934;2023-02-15T02:07:34;288.40;;;130.13;;
18732;SDS011;9495;51.210;2.934;2023-02-15T02:10:06;264.97;;;123.53;;
18732;SDS011;9495;51.210;2.934;2023-02-15T02:12:36;254.37;;;122.53;;
18732;SDS011;9495;51.210;2.934;2023-02-15T02:15:06;241.27;;;119.03;;
18732;SDS011;9495;51.210;2.934;2023-02-15T02:17:40;235.87;;;115.97;;
18732;SDS011;9495;51.210;2.934;2023-02-15T02:20:17;242.47;;;115.73;;
18732;SDS011;9495;51.210;2.934;2023-02-15T02:23:08;247.27;;;117.50;;
18732;SDS011;9495;51.210;2.934;2023-02-15T02:29:33;238.10;;;116.70;;
18732;SDS011;9495;51.210;2.934;2023-02-15T02:32:46;225.60;;;111.77;;
18732;SDS011;9495;51.210;2.934;2023-02-15T02:35:30;227.77;;;113.83;;
18732;SDS011;9495;51.210;2.934;2023-02-15T02:38:06;247.23;;;116.53;;
18732;SDS011;9495;51.210;2.934;2023-02-15T02:40:41;228.17;;;112.47;;
18732;SDS011;9495;51.210;2.934;2023-02-15T02:43:18;237.70;;;116.17;;
18732;SDS011;9495;51.210;2.934;2023-02-15T02:45:54;239.70;;;114.00;;
18732;SDS011;9495;51.210;2.934;2023-02-15T02:48:30;241.20;;;116.60;;
18732;SDS011;9495;51.210;2.934;2023-02-15T02:51:01;252.53;;;119.27;;
18732;SDS011;9495;51.210;2.934;2023-02-15T02:53:29;247.63;;;119.17;;
18732;SDS011;9495;51.210;2.934;2023-02-15T02:55:59;246.70;;;118.63;;
18732;SDS011;9495;51.210;2.934;2023-02-15T02:58:35;264.80;;;121.43;;
18732;SDS011;9495;51.210;2.934;2023-02-15T03:01:06;261.27;;;121.17;;
18732;SDS011;9495;51.210;2.934;2023-02-15T03:03:42;242.00;;;115.10;;
18732;SDS011;9495;51.210;2.934;2023-02-15T03:06:16;239.80;;;116.63;;
18732;SDS011;9495;51.210;2.934;2023-02-15T03:08:48;241.23;;;115.70;;
18732;SDS011;9495;51.210;2.934;2023-02-15T03:11:18;232.57;;;113.57;;
18732;SDS011;9495;51.210;2.934;2023-02-15T03:13:47;248.03;;;116.00;;
18732;SDS011;9495;51.210;2.934;2023-02-15T03:16:17;244.73;;;117.10;;
18732;SDS011;9495;51.210;2.934;2023-02-15T03:18:59;243.63;;;119.00;;
18732;SDS011;9495;51.210;2.934;2023-02-15T03:21:33;233.80;;;113.97;;
18732;SDS011;9495;51.210;2.934;2023-02-15T03:24:06;248.83;;;119.90;;
18732;SDS011;9495;51.210;2.934;2023-02-15T03:26:37;227.57;;;111.93;;
18732;SDS011;9495;51.210;2.934;2023-02-15T03:29:07;226.47;;;111.60;;
18732;SDS011;9495;51.210;2.934;2023-02-15T03:31:38;222.87;;;112.47;;
18732;SDS011;9495;51.210;2.934;2023-02-15T03:34:12;230.77;;;114.30;;
18732;SDS011;9495;51.210;2.934;2023-02-15T03:36:44;223.57;;;112.07;;
18732;SDS011;9495;51.210;2.934;2023-02-15T03:39:18;222.67;;;111.50;;
18732;SDS011;9495;51.210;2.934;2023-02-15T03:41:54;233.50;;;115.33;;
18732;SDS011;9495;51.210;2.934;2023-02-15T03:44:27;265.90;;;124.27;;
18732;SDS011;9495;51.210;2.934;2023-02-15T03:46:59;311.73;;;136.00;;
18732;SDS011;9495;51.210;2.934;2023-02-15T03:49:36;312.77;;;136.97;;
18732;SDS011;9495;51.210;2.934;2023-02-15T03:52:10;274.30;;;128.97;;
18732;SDS011;9495;51.210;2.934;2023-02-15T03:54:41;284.67;;;128.33;;
18732;SDS011;9495;51.210;2.934;2023-02-15T03:57:13;308.13;;;131.10;;
18732;SDS011;9495;51.210;2.934;2023-02-15T04:00:03;261.70;;;121.40;;
18732;SDS011;9495;51.210;2.934;2023-02-15T04:02:55;259.93;;;121.30;;
18732;SDS011;9495;51.210;2.934;2023-02-15T04:05:43;265.83;;;121.77;;
18732;SDS011;9495;51.210;2.934;2023-02-15T04:08:12;270.67;;;124.23;;
18732;SDS011;9495;51.210;2.934;2023-02-15T04:10:41;298.90;;;129.77;;
18732;SDS011;9495;51.210;2.934;2023-02-15T04:13:22;268.00;;;122.70;;
18732;SDS011;9495;51.210;2.934;2023-02-15T04:15:53;281.30;;;127.50;;
18732;SDS011;9495;51.210;2.934;2023-02-15T04:18:32;275.67;;;126.57;;
18732;SDS011;9495;51.210;2.934;2023-02-15T04:21:21;269.03;;;123.87;;
18732;SDS011;9495;51.210;2.934;2023-02-15T04:24:08;286.80;;;128.17;;
18732;SDS011;9495;51.210;2.934;2023-02-15T04:26:54;248.20;;;121.73;;
18732;SDS011;9495;51.210;2.934;2023-02-15T04:29:23;243.30;;;118.33;;
18732;SDS011;9495;51.210;2.934;2023-02-15T04:31:53;288.20;;;124.53;;
18732;SDS011;9495;51.210;2.934;2023-02-15T04:34:24;286.37;;;130.37;;
18732;SDS011;9495;51.210;2.934;2023-02-15T04:36:54;317.20;;;136.93;;
18732;SDS011;9495;51.210;2.934;2023-02-15T04:39:22;303.23;;;131.20;;
18732;SDS011;9495;51.210;2.934;2023-02-15T04:41:51;277.60;;;125.93;;
18732;SDS011;9495;51.210;2.934;2023-02-15T04:44:19;265.90;;;124.47;;
18732;SDS011;9495;51.210;2.934;2023-02-15T04:46:48;250.50;;;119.53;;
18732;SDS011;9495;51.210;2.934;2023-02-15T04:49:16;295.60;;;132.53;;
18732;SDS011;9495;51.210;2.934;2023-02-15T04:51:44;314.80;;;137.13;;
18732;SDS011;9495;51.210;2.934;2023-02-15T04:54:14;308.83;;;135.10;;
18732;SDS011;9495;51.210;2.934;2023-02-15T04:56:43;314.63;;;137.17;;
18732;SDS011;9495;51.210;2.934;2023-02-15T04:59:12;316.77;;;137.87;;
18732;SDS011;9495;51.210;2.934;2023-02-15T05:01:40;301.63;;;136.03;;
18732;SDS011;9495;51.210;2.934;2023-02-15T05:04:09;308.00;;;138.40;;
18732;SDS011;9495;51.210;2.934;2023-02-15T05:06:37;312.10;;;138.77;;
18732;SDS011;9495;51.210;2.934;2023-02-15T05:09:06;318.87;;;137.47;;
18732;SDS011;9495;51.210;2.934;2023-02-15T05:11:36;327.23;;;139.60;;
18732;SDS011;9495;51.210;2.934;2023-02-15T05:14:04;322.27;;;140.53;;
18732;SDS011;9495;51.210;2.934;2023-02-15T05:16:33;343.43;;;146.90;;
18732;SDS011;9495;51.210;2.934;2023-02-15T05:19:01;330.43;;;145.80;;
18732;SDS011;9495;51.210;2.934;2023-02-15T05:21:30;348.97;;;144.87;;
18732;SDS011;9495;51.210;2.934;2023-02-15T05:23:59;329.93;;;144.73;;
18732;SDS011;9495;51.210;2.934;2023-02-15T05:26:49;291.77;;;131.77;;
18732;SDS011;9495;51.210;2.934;2023-02-15T05:29:35;280.73;;;129.80;;
18732;SDS011;9495;51.210;2.934;2023-02-15T05:32:03;280.13;;;131.80;;
18732;SDS011;9495;51.210;2.934;2023-02-15T05:34:32;292.33;;;132.57;;
18732;SDS011;9495;51.210;2.934;2023-02-15T05:37:00;293.80;;;133.30;;
18732;SDS011;9495;51.210;2.934;2023-02-15T05:39:29;282.30;;;126.80;;
18732;SDS011;9495;51.210;2.934;2023-02-15T05:41:59;304.67;;;134.77;;
18732;SDS011;9495;51.210;2.934;2023-02-15T05:44:28;294.80;;;135.43;;
18732;SDS011;9495;51.210;2.934;2023-02-15T05:46:56;304.63;;;132.90;;
18732;SDS011;9495;51.210;2.934;2023-02-15T05:49:25;309.93;;;137.27;;
18732;SDS011;9495;51.210;2.934;2023-02-15T05:51:53;316.30;;;140.30;;
18732;SDS011;9495;51.210;2.934;2023-02-15T05:54:22;326.13;;;139.70;;
18732;SDS011;9495;51.210;2.934;2023-02-15T05:56:50;322.70;;;139.30;;
18732;SDS011;9495;51.210;2.934;2023-02-15T05:59:20;334.73;;;138.37;;
18732;SDS011;9495;51.210;2.934;2023-02-15T06:01:48;321.87;;;137.57;;
18732;SDS011;9495;51.210;2.934;2023-02-15T06:04:16;322.73;;;139.83;;
18732;SDS011;9495;51.210;2.934;2023-02-15T06:06:44;320.30;;;139.43;;
18732;SDS011;9495;51.210;2.934;2023-02-15T06:09:13;333.33;;;142.17;;
18732;SDS011;9495;51.210;2.934;2023-02-15T06:11:44;325.80;;;140.43;;
18732;SDS011;9495;51.210;2.934;2023-02-15T06:14:13;344.30;;;145.03;;
18732;SDS011;9495;51.210;2.934;2023-02-15T06:16:42;330.83;;;144.23;;
18732;SDS011;9495;51.210;2.934;2023-02-15T06:19:11;334.13;;;138.20;;
18732;SDS011;9495;51.210;2.934;2023-02-15T06:21:40;314.30;;;137.33;;
18732;SDS011;9495;51.210;2.934;2023-02-15T06:24:08;309.13;;;136.43;;
18732;SDS011;9495;51.210;2.934;2023-02-15T06:26:37;303.43;;;134.33;;
18732;SDS011;9495;51.210;2.934;2023-02-15T06:29:05;310.77;;;134.97;;
18732;SDS011;9495;51.210;2.934;2023-02-15T06:31:33;297.50;;;133.60;;
18732;SDS011;9495;51.210;2.934;2023-02-15T06:34:03;285.47;;;131.57;;
18732;SDS011;9495;51.210;2.934;2023-02-15T06:36:32;306.93;;;135.03;;
18732;SDS011;9495;51.210;2.934;2023-02-15T06:39:00;289.17;;;130.40;;
18732;SDS011;9495;51.210;2.934;2023-02-15T06:41:29;284.20;;;126.80;;
18732;SDS011;9495;51.210;2.934;2023-02-15T06:43:58;274.40;;;123.10;;
18732;SDS011;9495;51.210;2.934;2023-02-15T06:46:26;265.57;;;123.33;;
18732;SDS011;9495;51.210;2.934;2023-02-15T06:48:55;265.67;;;119.97;;
18732;SDS011;9495;51.210;2.934;2023-02-15T06:51:25;267.20;;;122.63;;
18732;SDS011;9495;51.210;2.934;2023-02-15T06:53:54;263.47;;;122.70;;
18732;SDS011;9495;51.210;2.934;2023-02-15T06:56:22;265.83;;;123.63;;
18732;SDS011;9495;51.210;2.934;2023-02-15T06:58:51;278.20;;;125.03;;
18732;SDS011;9495;51.210;2.934;2023-02-15T07:01:19;267.37;;;122.37;;
18732;SDS011;9495;51.210;2.934;2023-02-15T07:03:48;248.27;;;118.63;;
18732;SDS011;9495;51.210;2.934;2023-02-15T07:06:16;279.63;;;121.83;;
18732;SDS011;9495;51.210;2.934;2023-02-15T07:08:46;272.80;;;122.40;;
18732;SDS011;9495;51.210;2.934;2023-02-15T07:11:14;255.73;;;120.40;;
18732;SDS011;9495;51.210;2.934;2023-02-15T07:14:00;270.03;;;119.97;;
18732;SDS011;9495;51.210;2.934;2023-02-15T07:16:29;260.00;;;117.97;;
18732;SDS011;9495;51.210;2.934;2023-02-15T07:18:57;256.73;;;118.77;;
18732;SDS011;9495;51.210;2.934;2023-02-15T07:21:26;259.57;;;120.10;;
18732;SDS011;9495;51.210;2.934;2023-02-15T07:23:57;255.20;;;121.10;;
18732;SDS011;9495;51.210;2.934;2023-02-15T07:26:25;244.00;;;115.80;;
18732;SDS011;9495;51.210;2.934;2023-02-15T07:28:54;259.50;;;118.97;;
18732;SDS011;9495;51.210;2.934;2023-02-15T07:31:23;262.27;;;122.07;;
18732;SDS011;9495;51.210;2.934;2023-02-15T07:33:51;258.57;;;121.50;;
18732;SDS011;9495;51.210;2.934;2023-02-15T07:36:20;257.73;;;120.00;;
18732;SDS011;9495;51.210;2.934;2023-02-15T07:38:48;254.47;;;119.17;;
18732;SDS011;9495;51.210;2.934;2023-02-15T07:41:18;250.90;;;118.50;;
18732;SDS011;9495;51.210;2.934;2023-02-15T07:43:46;261.97;;;120.70;;
18732;SDS011;9495;51.210;2.934;2023-02-15T07:46:15;243.60;;;121.67;;
18732;SDS011;9495;51.210;2.934;2023-02-15T07:48:45;246.63;;;131.98;;
18732;SDS011;9495;51.210;2.934;2023-02-15T07:51:14;234.10;;;115.73;;
18732;SDS011;9495;51.210;2.934;2023-02-15T07:53:43;251.37;;;121.23;;
18732;SDS011;9495;51.210;2.934;2023-02-15T07:56:12;257.40;;;121.87;;
18732;SDS011;9495;51.210;2.934;2023-02-15T07:58:42;248.23;;;117.63;;
18732;SDS011;9495;51.210;2.934;2023-02-15T08:01:20;239.83;;;116.27;;
18732;SDS011;9495;51.210;2.934;2023-02-15T08:03:50;250.67;;;121.10;;
18732;SDS011;9495;51.210;2.934;2023-02-15T08:06:20;253.87;;;121.80;;
18732;SDS011;9495;51.210;2.934;2023-02-15T08:08:49;252.17;;;119.80;;
18732;SDS011;9495;51.210;2.934;2023-02-15T08:11:18;250.37;;;122.53;;
18732;SDS011;9495;51.210;2.934;2023-02-15T08:14:01;243.30;;;118.37;;
18732;SDS011;9495;51.210;2.934;2023-02-15T08:16:33;244.53;;;120.10;;
18732;SDS011;9495;51.210;2.934;2023-02-15T08:19:04;254.77;;;119.13;;
18732;SDS011;9495;51.210;2.934;2023-02-15T08:21:34;236.07;;;125.68;;
18732;SDS011;9495;51.210;2.934;2023-02-15T08:24:04;229.37;;;116.73;;
18732;SDS011;9495;51.210;2.934;2023-02-15T08:26:33;235.00;;;115.77;;
18732;SDS011;9495;51.210;2.934;2023-02-15T08:29:04;232.00;;;116.27;;
18732;SDS011;9495;51.210;2.934;2023-02-15T08:31:33;233.23;;;115.70;;
18732;SDS011;9495;51.210;2.934;2023-02-15T08:34:04;222.23;;;112.73;;
18732;SDS011;9495;51.210;2.934;2023-02-15T08:36:33;218.40;;;112.83;;
18732;SDS011;9495;51.210;2.934;2023-02-15T08:39:02;212.10;;;108.90;;
18732;SDS011;9495;51.210;2.934;2023-02-15T08:41:32;208.30;;;121.50;;
18732;SDS011;9495;51.210;2.934;2023-02-15T08:44:02;210.03;;;111.60;;
18732;SDS011;9495;51.210;2.934;2023-02-15T08:46:34;206.83;;;106.83;;
18732;SDS011;9495;51.210;2.934;2023-02-15T08:49:03;195.87;;;102.63;;
18732;SDS011;9495;51.210;2.934;2023-02-15T08:51:32;200.77;;;103.60;;
18732;SDS011;9495;51.210;2.934;2023-02-15T08:54:02;193.93;;;100.37;;
18732;SDS011;9495;51.210;2.934;2023-02-15T08:56:32;192.07;;;100.07;;
18732;SDS011;9495;51.210;2.934;2023-02-15T08:59:03;189.10;;;100.00;;
18732;SDS011;9495;51.210;2.934;2023-02-15T09:01:34;181.90;;;97.37;;
18732;SDS011;9495;51.210;2.934;2023-02-15T09:04:03;179.27;;;104.60;;
18732;SDS011;9495;51.210;2.934;2023-02-15T09:06:35;169.87;;;92.50;;
18732;SDS011;9495;51.210;2.934;2023-02-15T09:09:04;175.50;;;90.00;;
18732;SDS011;9495;51.210;2.934;2023-02-15T09:11:34;155.00;;;82.83;;
18732;SDS011;9495;51.210;2.934;2023-02-15T09:14:06;151.03;;;77.13;;
18732;SDS011;9495;51.210;2.934;2023-02-15T09:16:36;137.52;;;85.55;;
18732;SDS011;9495;51.210;2.934;2023-02-15T09:19:05;129.33;;;74.23;;
18732;SDS011;9495;51.210;2.934;2023-02-15T09:21:35;127.60;;;69.43;;
18732;SDS011;9495;51.210;2.934;2023-02-15T09:24:05;113.80;;;65.37;;
18732;SDS011;9495;51.210;2.934;2023-02-15T09:26:36;128.33;;;69.30;;
18732;SDS011;9495;51.210;2.934;2023-02-15T09:29:08;130.60;;;71.10;;
18732;SDS011;9495;51.210;2.934;2023-02-15T09:31:37;119.80;;;64.47;;
18732;SDS011;9495;51.210;2.934;2023-02-15T09:34:07;133.23;;;74.90;;
18732;SDS011;9495;51.210;2.934;2023-02-15T09:36:36;124.32;;;81.10;;
18732;SDS011;9495;51.210;2.934;2023-02-15T09:39:07;116.40;;;68.17;;
18732;SDS011;9495;51.210;2.934;2023-02-15T09:41:52;109.47;;;63.60;;
18732;SDS011;9495;51.210;2.934;2023-02-15T09:44:49;122.27;;;67.17;;
18732;SDS011;9495;51.210;2.934;2023-02-15T09:47:36;113.13;;;60.90;;
18732;SDS011;9495;51.210;2.934;2023-02-15T09:50:16;106.00;;;59.50;;
18732;SDS011;9495;51.210;2.934;2023-02-15T09:52:55;109.67;;;60.47;;
18732;SDS011;9495;51.210;2.934;2023-02-15T09:55:36;96.50;;;54.67;;
18732;SDS011;9495;51.210;2.934;2023-02-15T09:58:17;102.93;;;62.23;;
18732;SDS011;9495;51.210;2.934;2023-02-15T10:00:53;105.13;;;59.53;;
18732;SDS011;9495;51.210;2.934;2023-02-15T10:03:34;106.00;;;59.47;;
18732;SDS011;9495;51.210;2.934;2023-02-15T10:06:23;99.73;;;55.97;;
18732;SDS011;9495;51.210;2.934;2023-02-15T10:09:02;86.67;;;46.10;;
18732;SDS011;9495;51.210;2.934;2023-02-15T10:11:43;87.97;;;54.33;;
18732;SDS011;9495;51.210;2.934;2023-02-15T10:14:23;83.83;;;50.30;;
18732;SDS011;9495;51.210;2.934;2023-02-15T10:17:11;82.50;;;51.33;;
18732;SDS011;9495;51.210;2.934;2023-02-15T10:19:52;89.50;;;52.77;;
18732;SDS011;9495;51.210;2.934;2023-02-15T10:22:35;85.20;;;51.27;;
18732;SDS011;9495;51.210;2.934;2023-02-15T10:28:00;84.55;;;57.90;;
18732;SDS011;9495;51.210;2.934;2023-02-15T10:30:35;79.97;;;46.30;;
18732;SDS011;9495;51.210;2.934;2023-02-15T10:33:16;81.17;;;50.97;;
18732;SDS011;9495;51.210;2.934;2023-02-15T10:35:59;75.77;;;45.47;;
18732;SDS011;9495;51.210;2.934;2023-02-15T10:38:36;79.77;;;47.03;;
18732;SDS011;9495;51.210;2.934;2023-02-15T10:41:14;79.87;;;48.87;;
18732;SDS011;9495;51.210;2.934;2023-02-15T10:43:59;83.50;;;50.03;;
18732;SDS011;9495;51.210;2.934;2023-02-15T10:46:38;77.43;;;48.47;;
18732;SDS011;9495;51.210;2.934;2023-02-15T10:49:23;75.13;;;46.53;;
18732;SDS011;9495;51.210;2.934;2023-02-15T10:52:07;71.70;;;44.80;;
18732;SDS011;9495;51.210;2.934;2023-02-15T10:54:45;77.20;;;46.00;;
18732;SDS011;9495;51.210;2.934;2023-02-15T10:57:20;66.77;;;42.73;;
18732;SDS011;9495;51.210;2.934;2023-02-15T11:00:00;66.67;;;43.50;;
18732;SDS011;9495;51.210;2.934;2023-02-15T11:02:45;62.00;;;41.40;;
18732;SDS011;9495;51.210;2.934;2023-02-15T11:05:31;67.05;;;43.03;;
18732;SDS011;9495;51.210;2.934;2023-02-15T11:08:09;66.60;;;44.43;;
18732;SDS011;9495;51.210;2.934;2023-02-15T11:10:39;67.97;;;44.20;;
18732;SDS011;9495;51.210;2.934;2023-02-15T11:13:12;68.57;;;44.00;;
18732;SDS011;9495;51.210;2.934;2023-02-15T11:15:44;69.83;;;47.70;;
18732;SDS011;9495;51.210;2.934;2023-02-15T11:18:23;68.83;;;47.77;;
18732;SDS011;9495;51.210;2.934;2023-02-15T11:20:57;74.03;;;46.93;;
18732;SDS011;9495;51.210;2.934;2023-02-15T11:23:29;75.87;;;48.03;;
18732;SDS011;9495;51.210;2.934;2023-02-15T11:26:03;76.13;;;48.17;;
18732;SDS011;9495;51.210;2.934;2023-02-15T11:28:40;75.23;;;47.53;;
18732;SDS011;9495;51.210;2.934;2023-02-15T11:31:13;77.90;;;49.57;;
18732;SDS011;9495;51.210;2.934;2023-02-15T11:33:46;76.70;;;50.43;;
18732;SDS011;9495;51.210;2.934;2023-02-15T11:36:21;78.57;;;47.63;;
18732;SDS011;9495;51.210;2.934;2023-02-15T11:38:54;77.17;;;48.63;;
18732;SDS011;9495;51.210;2.934;2023-02-15T11:41:29;76.40;;;47.90;;
18732;SDS011;9495;51.210;2.934;2023-02-15T11:44:04;72.80;;;47.80;;
18732;SDS011;9495;51.210;2.934;2023-02-15T11:46:34;74.97;;;48.00;;
18732;SDS011;9495;51.210;2.934;2023-02-15T11:49:07;74.13;;;49.70;;
18732;SDS011;9495;51.210;2.934;2023-02-15T11:51:48;81.90;;;49.93;;
18732;SDS011;9495;51.210;2.934;2023-02-15T11:54:17;74.53;;;48.77;;
18732;SDS011;9495;51.210;2.934;2023-02-15T11:56:47;76.00;;;48.77;;
18732;SDS011;9495;51.210;2.934;2023-02-15T11:59:17;80.60;;;48.97;;
18732;SDS011;9495;51.210;2.934;2023-02-15T12:01:52;76.87;;;48.23;;
18732;SDS011;9495;51.210;2.934;2023-02-15T12:04:21;75.93;;;47.57;;
18732;SDS011;9495;51.210;2.934;2023-02-15T12:06:54;73.93;;;47.80;;
18732;SDS011;9495;51.210;2.934;2023-02-15T12:09:29;70.23;;;46.30;;
18732;SDS011;9495;51.210;2.934;2023-02-15T12:12:20;64.27;;;42.80;;
18732;SDS011;9495;51.210;2.934;2023-02-15T12:14:51;70.97;;;44.07;;
18732;SDS011;9495;51.210;2.934;2023-02-15T12:17:21;68.67;;;44.17;;
18732;SDS011;9495;51.210;2.934;2023-02-15T12:19:51;66.73;;;42.80;;
18732;SDS011;9495;51.210;2.934;2023-02-15T12:22:25;67.10;;;42.70;;
18732;SDS011;9495;51.210;2.934;2023-02-15T12:24:55;64.33;;;41.77;;
18732;SDS011;9495;51.210;2.934;2023-02-15T12:27:26;59.63;;;41.07;;
18732;SDS011;9495;51.210;2.934;2023-02-15T12:29:56;64.37;;;40.77;;
18732;SDS011;9495;51.210;2.934;2023-02-15T12:32:30;72.47;;;42.80;;
18732;SDS011;9495;51.210;2.934;2023-02-15T12:35:02;63.77;;;41.43;;
18732;SDS011;9495;51.210;2.934;2023-02-15T12:37:50;57.83;;;37.23;;
18732;SDS011;9495;51.210;2.934;2023-02-15T12:40:22;56.10;;;35.30;;
18732;SDS011;9495;51.210;2.934;2023-02-15T12:42:56;58.37;;;36.47;;
18732;SDS011;9495;51.210;2.934;2023-02-15T12:45:26;55.67;;;35.87;;
18732;SDS011;9495;51.210;2.934;2023-02-15T12:48:07;52.90;;;33.53;;
18732;SDS011;9495;51.210;2.934;2023-02-15T12:50:37;53.67;;;36.00;;
18732;SDS011;9495;51.210;2.934;2023-02-15T12:53:13;53.10;;;35.80;;
18732;SDS011;9495;51.210;2.934;2023-02-15T12:55:52;52.63;;;34.23;;
18732;SDS011;9495;51.210;2.934;2023-02-15T12:58:22;70.33;;;41.70;;
18732;SDS011;9495;51.210;2.934;2023-02-15T13:01:08;49.00;;;34.10;;
18732;SDS011;9495;51.210;2.934;2023-02-15T13:03:40;48.20;;;33.40;;
18732;SDS011;9495;51.210;2.934;2023-02-15T13:06:22;51.83;;;33.73;;
18732;SDS011;9495;51.210;2.934;2023-02-15T13:08:52;47.10;;;32.73;;
18732;SDS011;9495;51.210;2.934;2023-02-15T13:11:24;46.77;;;31.93;;
18732;SDS011;9495;51.210;2.934;2023-02-15T13:13:58;51.10;;;33.80;;
18732;SDS011;9495;51.210;2.934;2023-02-15T13:16:28;52.90;;;34.97;;
18732;SDS011;9495;51.210;2.934;2023-02-15T13:19:03;48.43;;;32.77;;
18732;SDS011;9495;51.210;2.934;2023-02-15T13:21:35;48.47;;;33.63;;
18732;SDS011;9495;51.210;2.934;2023-02-15T13:24:12;47.67;;;33.30;;
18732;SDS011;9495;51.210;2.934;2023-02-15T13:26:46;50.57;;;33.50;;
18732;SDS011;9495;51.210;2.934;2023-02-15T13:29:17;50.90;;;35.80;;
18732;SDS011;9495;51.210;2.934;2023-02-15T13:31:50;52.23;;;34.67;;
18732;SDS011;9495;51.210;2.934;2023-02-15T13:34:20;51.03;;;35.03;;
18732;SDS011;9495;51.210;2.934;2023-02-15T13:36:54;49.77;;;34.60;;
18732;SDS011;9495;51.210;2.934;2023-02-15T13:39:34;47.23;;;33.87;;
18732;SDS011;9495;51.210;2.934;2023-02-15T13:42:13;50.23;;;34.27;;
18732;SDS011;9495;51.210;2.934;2023-02-15T13:44:53;50.00;;;34.07;;
18732;SDS011;9495;51.210;2.934;2023-02-15T13:47:32;51.27;;;33.27;;
18732;SDS011;9495;51.210;2.934;2023-02-15T13:50:28;48.63;;;33.23;;
18732;SDS011;9495;51.210;2.934;2023-02-15T13:53:18;45.30;;;30.30;;
18732;SDS011;9495;51.210;2.934;2023-02-15T13:56:04;52.23;;;32.67;;
18732;SDS011;9495;51.210;2.934;2023-02-15T13:58:53;46.47;;;28.80;;
18732;SDS011;9495;51.210;2.934;2023-02-15T14:01:42;49.67;;;32.37;;
18732;SDS011;9495;51.210;2.934;2023-02-15T14:07:25;46.77;;;32.13;;
18732;SDS011;9495;51.210;2.934;2023-02-15T14:10:13;47.93;;;30.90;;
18732;SDS011;9495;51.210;2.934;2023-02-15T14:13:15;49.23;;;32.17;;
18732;SDS011;9495;51.210;2.934;2023-02-15T14:16:03;51.57;;;33.53;;
18732;SDS011;9495;51.210;2.934;2023-02-15T14:18:35;58.30;;;33.97;;
18732;SDS011;9495;51.210;2.934;2023-02-15T14:21:08;47.93;;;32.60;;
18732;SDS011;9495;51.210;2.934;2023-02-15T14:23:48;53.10;;;35.33;;
18732;SDS011;9495;51.210;2.934;2023-02-15T14:26:25;51.63;;;33.27;;
18732;SDS011;9495;51.210;2.934;2023-02-15T14:29:13;50.77;;;35.83;;
18732;SDS011;9495;51.210;2.934;2023-02-15T14:31:52;52.60;;;33.77;;
18732;SDS011;9495;51.210;2.934;2023-02-15T14:34:23;53.10;;;36.97;;
18732;SDS011;9495;51.210;2.934;2023-02-15T14:36:55;54.47;;;36.83;;
18732;SDS011;9495;51.210;2.934;2023-02-15T14:39:27;53.83;;;37.17;;
18732;SDS011;9495;51.210;2.934;2023-02-15T14:42:23;54.40;;;36.93;;
18732;SDS011;9495;51.210;2.934;2023-02-15T14:44:57;58.17;;;38.63;;
18732;SDS011;9495;51.210;2.934;2023-02-15T14:47:32;58.03;;;37.83;;
18732;SDS011;9495;51.210;2.934;2023-02-15T14:53:22;50.43;;;34.93;;
18732;SDS011;9495;51.210;2.934;2023-02-15T14:58:56;57.70;;;37.60;;
18732;SDS011;9495;51.210;2.934;2023-02-15T15:01:29;57.80;;;37.47;;
18732;SDS011;9495;51.210;2.934;2023-02-15T15:03:59;55.87;;;36.63;;
18732;SDS011;9495;51.210;2.934;2023-02-15T15:06:32;54.20;;;37.33;;
18732;SDS011;9495;51.210;2.934;2023-02-15T15:09:09;56.30;;;37.47;;